createdAt,value
2019-01-17T00:00:55.085Z,993.02
2019-01-17T00:01:55.071Z,992.98
2019-01-17T00:02:55.057Z,992.83
2019-01-17T00:03:55.075Z,992.93
2019-01-17T00:04:55.044Z,992.89
2019-01-17T00:05:55.021Z,992.91
2019-01-17T00:06:55.023Z,992.80
2019-01-17T00:07:55.007Z,992.84
2019-01-17T00:08:55.010Z,992.92
2019-01-17T00:09:55.011Z,992.92
2019-01-17T00:10:54.965Z,992.80
2019-01-17T00:11:54.960Z,992.81
2019-01-17T00:12:54.952Z,992.83
2019-01-17T00:13:54.944Z,993.03
2019-01-17T00:14:54.930Z,993.05
2019-01-17T00:15:55.410Z,992.92
2019-01-17T00:16:54.911Z,992.91
2019-01-17T00:17:54.901Z,992.80
2019-01-17T00:18:54.886Z,992.78
2019-01-17T00:19:54.876Z,992.83
2019-01-17T00:20:54.879Z,992.71
2019-01-17T00:21:54.855Z,992.91
2019-01-17T00:22:54.855Z,992.63
2019-01-17T00:23:54.841Z,992.63
2019-01-17T00:24:54.823Z,992.57
2019-01-17T00:25:54.843Z,992.60
2019-01-17T00:26:54.802Z,992.53
2019-01-17T00:27:54.792Z,992.72
2019-01-17T00:28:54.787Z,992.62
2019-01-17T00:29:54.776Z,992.60
2019-01-17T00:30:54.754Z,992.66
2019-01-17T00:31:54.800Z,992.57
2019-01-17T00:32:54.739Z,992.56
2019-01-17T00:33:54.729Z,992.58
2019-01-17T00:34:54.710Z,992.53
2019-01-17T00:35:54.727Z,992.66
2019-01-17T00:36:54.748Z,992.64
2019-01-17T00:37:54.698Z,992.60
2019-01-17T00:38:54.682Z,992.58
2019-01-17T00:39:54.664Z,992.65
2019-01-17T00:40:54.647Z,992.86
2019-01-17T00:41:54.647Z,992.59
2019-01-17T00:42:54.661Z,992.48
2019-01-17T00:43:54.626Z,992.59
2019-01-17T00:44:54.612Z,992.61
2019-01-17T00:45:54.598Z,992.44
2019-01-17T00:46:54.592Z,992.55
2019-01-17T00:47:54.579Z,992.64
2019-01-17T00:48:54.588Z,992.45
2019-01-17T00:49:54.562Z,992.35
2019-01-17T00:50:54.565Z,992.53
2019-01-17T00:51:54.530Z,992.52
2019-01-17T00:52:54.524Z,992.46
2019-01-17T00:53:54.526Z,992.47
2019-01-17T00:54:54.525Z,992.60
2019-01-17T00:55:54.489Z,992.56
2019-01-17T00:56:54.499Z,992.71
2019-01-17T00:57:54.472Z,992.54
2019-01-17T00:58:54.457Z,992.66
2019-01-17T00:59:54.465Z,992.81
2019-01-17T01:00:54.459Z,992.78
2019-01-17T01:01:54.427Z,992.63
2019-01-17T01:02:54.431Z,992.51
2019-01-17T01:03:54.403Z,992.57
2019-01-17T01:04:54.435Z,992.58
2019-01-17T01:05:54.390Z,992.58
2019-01-17T01:06:54.370Z,992.82
2019-01-17T01:07:54.367Z,992.62
2019-01-17T01:08:54.362Z,992.71
2019-01-17T01:09:54.354Z,992.66
2019-01-17T01:10:54.360Z,992.56
2019-01-17T01:11:54.322Z,992.68
2019-01-17T01:12:54.317Z,992.53
2019-01-17T01:13:54.297Z,992.54
2019-01-17T01:14:54.306Z,992.41
2019-01-17T01:15:54.281Z,992.49
2019-01-17T01:16:54.298Z,992.69
2019-01-17T01:17:54.258Z,992.64
2019-01-17T01:18:54.242Z,992.54
2019-01-17T01:19:54.240Z,992.57
2019-01-17T01:20:54.227Z,992.44
2019-01-17T01:21:54.211Z,992.59
2019-01-17T01:22:54.228Z,992.66
2019-01-17T01:23:54.189Z,992.47
2019-01-17T01:24:54.180Z,992.59
2019-01-17T01:25:54.172Z,992.65
2019-01-17T01:26:54.170Z,992.58
2019-01-17T01:27:54.155Z,992.60
2019-01-17T01:28:54.161Z,992.60
2019-01-17T01:29:54.132Z,992.45
2019-01-17T01:30:54.114Z,992.49
2019-01-17T01:31:54.102Z,992.56
2019-01-17T01:32:54.123Z,992.54
2019-01-17T01:33:54.080Z,992.49
2019-01-17T01:34:54.099Z,992.63
2019-01-17T01:35:54.061Z,992.63
2019-01-17T01:36:54.052Z,992.97
2019-01-17T01:37:54.045Z,992.95
2019-01-17T01:38:54.031Z,992.65
2019-01-17T01:39:54.020Z,992.78
2019-01-17T01:40:54.036Z,992.68
2019-01-17T01:41:53.993Z,992.67
2019-01-17T01:42:54.046Z,992.58
2019-01-17T01:43:53.971Z,992.68
2019-01-17T01:44:53.965Z,992.61
2019-01-17T01:45:54.010Z,992.69
2019-01-17T01:46:53.974Z,992.69
2019-01-17T01:47:53.933Z,992.74
2019-01-17T01:48:53.921Z,992.80
2019-01-17T01:49:53.923Z,993.01
2019-01-17T01:50:53.898Z,992.72
2019-01-17T01:51:53.920Z,992.82
2019-01-17T01:52:53.896Z,993.05
2019-01-17T01:53:53.863Z,993.10
2019-01-17T01:54:53.857Z,992.99
2019-01-17T01:55:53.843Z,992.83
2019-01-17T01:56:53.836Z,992.71
2019-01-17T01:57:53.863Z,992.70
2019-01-17T01:58:53.807Z,992.63
2019-01-17T01:59:53.798Z,992.82
2019-01-17T02:00:53.786Z,992.61
2019-01-17T02:01:53.782Z,992.73
2019-01-17T02:02:53.800Z,992.62
2019-01-17T02:03:53.762Z,992.56
2019-01-17T02:04:53.747Z,992.64
2019-01-17T02:05:53.731Z,992.74
2019-01-17T02:06:53.731Z,992.73
2019-01-17T02:07:53.720Z,992.51
2019-01-17T02:08:53.725Z,992.56
2019-01-17T02:09:53.721Z,992.53
2019-01-17T02:10:53.682Z,992.44
2019-01-17T02:11:53.678Z,992.45
2019-01-17T02:12:53.662Z,992.18
2019-01-17T02:13:53.667Z,992.17
2019-01-17T02:14:53.644Z,992.29
2019-01-17T02:15:53.640Z,992.33
2019-01-17T02:16:53.708Z,992.38
2019-01-17T02:17:53.603Z,992.30
2019-01-17T02:18:53.610Z,992.33
2019-01-17T02:19:53.582Z,992.38
2019-01-17T02:20:53.572Z,992.37
2019-01-17T02:21:53.563Z,992.32
2019-01-17T02:22:53.556Z,992.51
2019-01-17T02:23:53.576Z,992.55
2019-01-17T02:24:53.527Z,992.62
2019-01-17T02:25:53.524Z,992.42
2019-01-17T02:26:53.513Z,992.53
2019-01-17T02:27:53.493Z,992.52
2019-01-17T02:28:53.492Z,992.57
2019-01-17T02:29:53.499Z,992.53
2019-01-17T02:30:53.462Z,992.67
2019-01-17T02:31:53.461Z,992.51
2019-01-17T02:32:53.445Z,992.53
2019-01-17T02:33:53.438Z,992.66
2019-01-17T02:34:53.494Z,992.53
2019-01-17T02:35:53.430Z,992.60
2019-01-17T02:36:53.405Z,992.67
2019-01-17T02:37:53.402Z,992.62
2019-01-17T02:38:53.385Z,992.65
2019-01-17T02:39:53.384Z,992.57
2019-01-17T02:40:53.396Z,992.68
2019-01-17T02:41:53.355Z,992.73
2019-01-17T02:42:53.345Z,992.62
2019-01-17T02:43:53.331Z,992.64
2019-01-17T02:44:53.323Z,992.74
2019-01-17T02:45:53.333Z,992.81
2019-01-17T02:46:53.364Z,992.80
2019-01-17T02:47:53.282Z,992.93
2019-01-17T02:48:53.281Z,992.81
2019-01-17T02:49:53.271Z,992.82
2019-01-17T02:50:53.254Z,992.84
2019-01-17T02:51:53.244Z,992.84
2019-01-17T02:52:53.250Z,992.87
2019-01-17T02:53:53.234Z,992.78
2019-01-17T02:54:53.215Z,992.84
2019-01-17T02:55:53.207Z,992.68
2019-01-17T02:56:53.194Z,992.76
2019-01-17T02:57:53.201Z,992.88
2019-01-17T02:58:53.189Z,992.88
2019-01-17T02:59:53.182Z,992.80
2019-01-17T03:00:53.154Z,992.96
2019-01-17T03:01:53.142Z,992.83
2019-01-17T03:02:53.129Z,992.77
2019-01-17T03:03:53.134Z,992.85
2019-01-17T03:04:53.106Z,992.97
2019-01-17T03:05:53.105Z,992.74
2019-01-17T03:06:53.078Z,992.77
2019-01-17T03:07:53.070Z,992.71
2019-01-17T03:08:53.089Z,992.78
2019-01-17T03:09:53.049Z,992.71
2019-01-17T03:10:53.041Z,992.54
2019-01-17T03:11:53.040Z,992.60
2019-01-17T03:12:53.014Z,992.58
2019-01-17T03:13:53.011Z,992.52
2019-01-17T03:14:53.020Z,992.67
2019-01-17T03:15:52.996Z,992.57
2019-01-17T03:16:52.977Z,992.50
2019-01-17T03:17:52.986Z,992.66
2019-01-17T03:18:52.960Z,992.57
2019-01-17T03:19:52.944Z,992.64
2019-01-17T03:20:52.961Z,992.55
2019-01-17T03:21:52.920Z,992.60
2019-01-17T03:22:52.915Z,992.53
2019-01-17T03:23:52.908Z,992.58
2019-01-17T03:24:52.894Z,992.63
2019-01-17T03:25:52.906Z,992.71
2019-01-17T03:26:52.865Z,992.76
2019-01-17T03:27:52.864Z,992.86
2019-01-17T03:28:52.845Z,992.79
2019-01-17T03:29:52.847Z,992.71
2019-01-17T03:30:52.834Z,992.80
2019-01-17T03:31:52.840Z,992.76
2019-01-17T03:32:52.802Z,992.61
2019-01-17T03:33:52.791Z,992.68
2019-01-17T03:34:52.782Z,992.77
2019-01-17T03:35:52.783Z,992.82
2019-01-17T03:36:52.761Z,992.68
2019-01-17T03:37:52.785Z,992.67
2019-01-17T03:38:52.739Z,992.68
2019-01-17T03:39:52.734Z,992.75
2019-01-17T03:40:52.717Z,992.74
2019-01-17T03:41:52.726Z,992.78
2019-01-17T03:42:52.703Z,992.72
2019-01-17T03:43:52.757Z,992.71
2019-01-17T03:44:52.676Z,992.73
2019-01-17T03:45:52.666Z,992.78
2019-01-17T03:46:52.659Z,992.77
2019-01-17T03:47:52.686Z,992.70
2019-01-17T03:48:52.640Z,992.82
2019-01-17T03:49:52.649Z,992.73
2019-01-17T03:50:52.616Z,992.75
2019-01-17T03:51:52.604Z,992.78
2019-01-17T03:52:52.601Z,992.82
2019-01-17T03:53:52.601Z,992.81
2019-01-17T03:54:53.975Z,992.68
2019-01-17T03:55:52.611Z,992.73
2019-01-17T03:56:52.545Z,992.83
2019-01-17T03:57:52.536Z,992.82
2019-01-17T03:58:52.533Z,992.79
2019-01-17T03:59:52.559Z,992.84
2019-01-17T04:00:52.536Z,992.82
2019-01-17T04:01:52.499Z,992.96
2019-01-17T04:02:52.496Z,992.78
2019-01-17T04:03:52.479Z,992.95
2019-01-17T04:04:52.490Z,992.98
2019-01-17T04:05:52.481Z,993.12
2019-01-17T04:06:52.446Z,993.01
2019-01-17T04:07:52.437Z,993.07
2019-01-17T04:08:52.420Z,993.07
2019-01-17T04:09:52.411Z,993.01
2019-01-17T04:10:52.403Z,992.96
2019-01-17T04:11:52.422Z,993.13
2019-01-17T04:12:52.401Z,992.99
2019-01-17T04:13:52.377Z,993.04
2019-01-17T04:14:52.358Z,992.95
2019-01-17T04:15:52.355Z,992.92
2019-01-17T04:16:52.369Z,992.94
2019-01-17T04:17:52.329Z,992.93
2019-01-17T04:18:52.332Z,992.97
2019-01-17T04:19:52.323Z,992.93
2019-01-17T04:20:52.295Z,993.08
2019-01-17T04:21:52.292Z,993.04
2019-01-17T04:22:52.302Z,993.12
2019-01-17T04:23:52.265Z,993.08
2019-01-17T04:24:57.303Z,992.98
2019-01-17T04:25:53.247Z,993.18
2019-01-17T04:26:52.229Z,992.97
2019-01-17T04:27:52.232Z,993.21
2019-01-17T04:28:52.232Z,992.99
2019-01-17T04:29:52.202Z,993.09
2019-01-17T04:30:52.191Z,993.04
2019-01-17T04:31:52.201Z,992.96
2019-01-17T04:32:52.167Z,992.95
2019-01-17T04:33:52.170Z,992.94
2019-01-17T04:34:52.180Z,992.97
2019-01-17T04:35:52.131Z,992.98
2019-01-17T04:36:52.124Z,992.86
2019-01-17T04:37:52.131Z,992.81
2019-01-17T04:38:52.098Z,992.83
2019-01-17T04:39:52.086Z,992.77
2019-01-17T04:40:52.103Z,992.73
2019-01-17T04:41:52.072Z,992.89
2019-01-17T04:42:52.067Z,992.70
2019-01-17T04:43:52.069Z,992.78
2019-01-17T04:44:52.039Z,992.73
2019-01-17T04:45:52.045Z,992.82
2019-01-17T04:46:52.031Z,992.66
2019-01-17T04:47:52.017Z,992.78
2019-01-17T04:48:51.997Z,992.80
2019-01-17T04:49:51.993Z,992.94
2019-01-17T04:50:51.995Z,992.84
2019-01-17T04:51:51.968Z,992.86
2019-01-17T04:52:51.947Z,992.87
2019-01-17T04:53:51.939Z,992.89
2019-01-17T04:54:51.925Z,992.94
2019-01-17T04:55:51.949Z,992.88
2019-01-17T04:56:51.915Z,992.81
2019-01-17T04:57:51.914Z,992.83
2019-01-17T04:58:51.882Z,992.71
2019-01-17T04:59:51.878Z,992.88
2019-01-17T05:00:51.886Z,992.93
2019-01-17T05:01:51.866Z,992.73
2019-01-17T05:02:51.847Z,992.83
2019-01-17T05:03:51.839Z,992.92
2019-01-17T05:04:51.817Z,992.80
2019-01-17T05:05:51.813Z,992.74
2019-01-17T05:06:51.830Z,992.76
2019-01-17T05:07:51.791Z,993.01
2019-01-17T05:08:51.837Z,992.80
2019-01-17T05:09:51.769Z,992.82
2019-01-17T05:10:51.759Z,992.77
2019-01-17T05:11:51.752Z,992.81
2019-01-17T05:12:51.757Z,992.85
2019-01-17T05:13:51.724Z,992.82
2019-01-17T05:14:51.739Z,992.91
2019-01-17T05:15:51.698Z,992.87
2019-01-17T05:16:51.699Z,992.88
2019-01-17T05:17:51.709Z,992.88
2019-01-17T05:18:51.684Z,992.97
2019-01-17T05:19:51.665Z,992.93
2019-01-17T05:20:51.711Z,992.95
2019-01-17T05:21:51.642Z,993.04
2019-01-17T05:22:51.631Z,993.09
2019-01-17T05:23:51.698Z,993.15
2019-01-17T05:24:51.613Z,993.03
2019-01-17T05:25:51.608Z,993.30
2019-01-17T05:26:51.606Z,993.07
2019-01-17T05:27:51.578Z,993.23
2019-01-17T05:28:51.569Z,992.99
2019-01-17T05:29:51.569Z,993.18
2019-01-17T05:30:51.548Z,992.99
2019-01-17T05:31:51.543Z,992.87
2019-01-17T05:32:51.531Z,992.84
2019-01-17T05:33:51.508Z,992.82
2019-01-17T05:34:51.553Z,992.94
2019-01-17T05:35:51.506Z,992.94
2019-01-17T05:36:51.480Z,993.00
2019-01-17T05:37:51.487Z,993.03
2019-01-17T05:38:51.471Z,992.90
2019-01-17T05:39:51.447Z,992.94
2019-01-17T05:40:51.466Z,993.16
2019-01-17T05:41:51.431Z,992.98
2019-01-17T05:42:51.422Z,992.99
2019-01-17T05:43:51.412Z,992.86
2019-01-17T05:44:51.402Z,993.07
2019-01-17T05:45:51.425Z,992.94
2019-01-17T05:46:51.378Z,992.92
2019-01-17T05:47:51.358Z,992.94
2019-01-17T05:48:51.357Z,992.84
2019-01-17T05:49:51.355Z,992.94
2019-01-17T05:50:51.335Z,992.77
2019-01-17T05:51:51.357Z,993.12
2019-01-17T05:52:51.312Z,992.98
2019-01-17T05:53:51.300Z,993.04
2019-01-17T05:54:51.315Z,993.11
2019-01-17T05:55:51.290Z,992.99
2019-01-17T05:56:51.294Z,993.06
2019-01-17T05:57:51.257Z,992.96
2019-01-17T05:58:51.255Z,992.95
2019-01-17T05:59:51.231Z,993.02
2019-01-17T06:00:51.229Z,993.02
2019-01-17T06:01:51.245Z,993.13
2019-01-17T06:02:51.204Z,993.00
2019-01-17T06:03:51.201Z,993.03
2019-01-17T06:04:51.180Z,993.17
2019-01-17T06:05:51.176Z,993.21
2019-01-17T06:06:51.200Z,993.00
2019-01-17T06:07:51.154Z,993.06
2019-01-17T06:08:51.168Z,993.03
2019-01-17T06:09:51.130Z,992.98
2019-01-17T06:10:51.135Z,993.05
2019-01-17T06:11:51.128Z,993.06
2019-01-17T06:12:51.101Z,993.08
2019-01-17T06:13:51.094Z,992.98
2019-01-17T06:14:51.074Z,993.11
2019-01-17T06:15:51.086Z,993.09
2019-01-17T06:16:51.083Z,993.15
2019-01-17T06:17:51.049Z,993.05
2019-01-17T06:18:51.046Z,993.11
2019-01-17T06:19:51.036Z,992.90
2019-01-17T06:20:51.018Z,993.05
2019-01-17T06:21:51.003Z,993.03
2019-01-17T06:22:51.006Z,993.04
2019-01-17T06:23:50.980Z,993.28
2019-01-17T06:24:50.978Z,993.25
2019-01-17T06:25:50.968Z,993.07
2019-01-17T06:26:50.947Z,992.98
2019-01-17T06:27:50.971Z,993.29
2019-01-17T06:28:50.926Z,993.04
2019-01-17T06:29:50.940Z,993.08
2019-01-17T06:30:50.916Z,993.02
2019-01-17T06:31:50.892Z,993.11
2019-01-17T06:32:50.906Z,993.04
2019-01-17T06:33:50.870Z,993.19
2019-01-17T06:34:50.885Z,992.92
2019-01-17T06:35:50.857Z,993.02
2019-01-17T06:36:50.859Z,992.86
2019-01-17T06:37:50.864Z,992.94
2019-01-17T06:38:50.819Z,992.87
2019-01-17T06:39:50.815Z,992.87
2019-01-17T06:40:50.799Z,992.87
2019-01-17T06:41:50.806Z,992.87
2019-01-17T06:42:50.823Z,992.82
2019-01-17T06:43:51.171Z,992.92
2019-01-17T06:44:50.762Z,992.89
2019-01-17T06:45:50.746Z,992.97
2019-01-17T06:46:50.736Z,993.03
2019-01-17T06:47:50.740Z,992.93
2019-01-17T06:48:50.761Z,992.91
2019-01-17T06:49:50.707Z,992.96
2019-01-17T06:50:50.703Z,992.88
2019-01-17T06:51:50.700Z,992.88
2019-01-17T06:52:50.669Z,992.97
2019-01-17T06:53:50.696Z,992.76
2019-01-17T06:54:50.683Z,992.86
2019-01-17T06:55:50.638Z,992.81
2019-01-17T06:56:50.710Z,992.80
2019-01-17T06:57:50.615Z,993.02
2019-01-17T06:58:50.616Z,992.91
2019-01-17T06:59:50.627Z,993.12
2019-01-17T07:00:50.618Z,992.97
2019-01-17T07:01:50.601Z,993.12
2019-01-17T07:02:50.578Z,993.03
2019-01-17T07:03:50.552Z,992.96
2019-01-17T07:04:50.577Z,993.03
2019-01-17T07:05:50.535Z,993.09
2019-01-17T07:06:50.520Z,993.09
2019-01-17T07:07:50.532Z,993.09
2019-01-17T07:08:50.501Z,993.06
2019-01-17T07:09:50.491Z,993.19
2019-01-17T07:10:50.514Z,993.10
2019-01-17T07:11:50.474Z,992.98
2019-01-17T07:12:50.455Z,993.13
2019-01-17T07:13:50.449Z,993.15
2019-01-17T07:14:50.434Z,993.01
2019-01-17T07:15:50.451Z,992.96
2019-01-17T07:16:50.441Z,992.89
2019-01-17T07:17:50.403Z,992.90
2019-01-17T07:18:50.401Z,993.06
2019-01-17T07:19:50.405Z,993.04
2019-01-17T07:20:50.386Z,992.95
2019-01-17T07:21:50.390Z,992.98
2019-01-17T07:22:50.357Z,992.85
2019-01-17T07:23:50.344Z,993.06
2019-01-17T07:24:50.338Z,992.97
2019-01-17T07:25:50.477Z,993.05
2019-01-17T07:26:50.343Z,993.09
2019-01-17T07:27:53.318Z,993.10
2019-01-17T07:28:50.290Z,992.93
2019-01-17T07:29:50.283Z,993.05
2019-01-17T07:30:50.267Z,993.03
2019-01-17T07:31:50.259Z,993.35
2019-01-17T07:32:50.274Z,993.09
2019-01-17T07:33:50.235Z,993.16
2019-01-17T07:34:50.227Z,993.15
2019-01-17T07:35:50.236Z,993.24
2019-01-17T07:36:50.215Z,992.97
2019-01-17T07:37:50.220Z,992.99
2019-01-17T07:38:50.206Z,993.07
2019-01-17T07:39:50.176Z,993.11
2019-01-17T07:40:50.155Z,993.06
2019-01-17T07:41:50.156Z,993.08
2019-01-17T07:42:50.150Z,993.07
2019-01-17T07:43:50.152Z,993.22
2019-01-17T07:44:50.166Z,993.43
2019-01-17T07:45:50.170Z,993.32
2019-01-17T07:46:50.099Z,993.37
2019-01-17T07:47:50.083Z,993.18
2019-01-17T07:48:50.108Z,993.26
2019-01-17T07:49:50.073Z,993.48
2019-01-17T07:50:50.185Z,993.26
2019-01-17T07:51:50.105Z,993.19
2019-01-17T07:52:50.027Z,993.17
2019-01-17T07:53:50.018Z,993.23
2019-01-17T07:54:50.038Z,993.34
2019-01-17T07:55:50.001Z,993.16
2019-01-17T07:56:50.006Z,993.29
2019-01-17T07:57:49.987Z,993.20
2019-01-17T07:58:49.967Z,993.18
2019-01-17T07:59:49.967Z,993.59
2019-01-17T08:00:49.970Z,993.23
2019-01-17T08:01:50.025Z,993.25
2019-01-17T08:02:49.928Z,993.28
2019-01-17T08:03:49.913Z,993.32
2019-01-17T08:04:49.905Z,993.26
2019-01-17T08:05:50.036Z,993.34
2019-01-17T08:06:49.883Z,993.31
2019-01-17T08:07:49.864Z,993.32
2019-01-17T08:08:49.883Z,993.49
2019-01-17T08:09:49.849Z,993.39
2019-01-17T08:10:49.831Z,993.57
2019-01-17T08:11:49.991Z,993.26
2019-01-17T08:12:49.831Z,993.32
2019-01-17T08:13:49.868Z,993.34
2019-01-17T08:14:49.839Z,993.27
2019-01-17T08:15:49.789Z,993.31
2019-01-17T08:16:49.804Z,993.37
2019-01-17T08:17:49.760Z,993.35
2019-01-17T08:18:49.755Z,993.35
2019-01-17T08:19:49.743Z,993.45
2019-01-17T08:20:49.738Z,993.33
2019-01-17T08:21:49.761Z,993.66
2019-01-17T08:22:49.724Z,993.19
2019-01-17T08:23:49.743Z,993.46
2019-01-17T08:24:49.689Z,993.38
2019-01-17T08:25:54.146Z,993.49
2019-01-17T08:26:49.676Z,993.31
2019-01-17T08:27:49.736Z,993.35
2019-01-17T08:28:49.647Z,993.50
2019-01-17T08:29:49.723Z,993.48
2019-01-17T08:30:49.662Z,993.47
2019-01-17T08:31:49.616Z,993.38
2019-01-17T08:32:49.610Z,993.46
2019-01-17T08:33:49.618Z,993.47
2019-01-17T08:34:49.578Z,993.38
2019-01-17T08:35:49.581Z,993.44
2019-01-17T08:36:49.560Z,993.53
2019-01-17T08:37:49.559Z,993.42
2019-01-17T08:38:49.563Z,993.64
2019-01-17T08:39:49.533Z,993.42
2019-01-17T08:40:49.517Z,993.37
2019-01-17T08:41:49.510Z,993.28
2019-01-17T08:42:49.577Z,993.43
2019-01-17T08:43:49.485Z,993.36
2019-01-17T08:44:49.525Z,993.41
2019-01-17T08:45:49.508Z,993.40
2019-01-17T08:46:49.495Z,993.40
2019-01-17T08:47:49.458Z,993.44
2019-01-17T08:48:49.438Z,993.36
2019-01-17T08:49:49.455Z,993.38
2019-01-17T08:50:49.418Z,993.34
2019-01-17T08:51:49.397Z,993.42
2019-01-17T08:52:49.401Z,993.38
2019-01-17T08:53:49.395Z,993.47
2019-01-17T08:54:49.372Z,993.43
2019-01-17T08:55:49.390Z,993.41
2019-01-17T08:56:49.385Z,993.42
2019-01-17T08:57:49.438Z,993.33
2019-01-17T08:58:49.325Z,993.35
2019-01-17T08:59:49.320Z,993.32
2019-01-17T09:00:49.310Z,993.42
2019-01-17T09:01:49.313Z,993.49
2019-01-17T09:02:49.284Z,993.35
2019-01-17T09:03:49.353Z,993.57
2019-01-17T09:04:49.302Z,993.52
2019-01-17T09:05:49.258Z,993.74
2019-01-17T09:06:50.318Z,993.55
2019-01-17T09:07:49.266Z,993.44
2019-01-17T09:08:49.225Z,993.58
2019-01-17T09:09:49.208Z,993.60
2019-01-17T09:10:49.201Z,993.62
2019-01-17T09:11:49.204Z,993.77
2019-01-17T09:12:49.211Z,993.72
2019-01-17T09:13:49.182Z,993.60
2019-01-17T09:14:49.194Z,993.58
2019-01-17T09:15:49.157Z,993.56
2019-01-17T09:16:49.169Z,993.64
2019-01-17T09:17:49.130Z,993.73
2019-01-17T09:18:49.137Z,993.54
2019-01-17T09:19:49.130Z,993.53
2019-01-17T09:20:49.096Z,993.78
2019-01-17T09:21:49.093Z,993.52
2019-01-17T09:22:49.074Z,993.77
2019-01-17T09:23:49.089Z,993.87
2019-01-17T09:24:49.051Z,993.62
2019-01-17T09:25:49.050Z,993.68
2019-01-17T09:26:49.034Z,993.57
2019-01-17T09:27:49.025Z,993.70
2019-01-17T09:28:49.039Z,993.60
2019-01-17T09:29:49.023Z,993.70
2019-01-17T09:30:48.997Z,993.53
2019-01-17T09:31:48.979Z,993.74
2019-01-17T09:32:48.971Z,993.60
2019-01-17T09:33:48.955Z,993.64
2019-01-17T09:34:48.989Z,993.68
2019-01-17T09:35:48.934Z,993.54
2019-01-17T09:36:48.949Z,993.80
2019-01-17T09:37:48.934Z,993.67
2019-01-17T09:38:48.909Z,993.54
2019-01-17T09:39:48.933Z,993.54
2019-01-17T09:40:48.891Z,993.53
2019-01-17T09:41:48.899Z,993.59
2019-01-17T09:42:48.881Z,993.76
2019-01-17T09:43:48.873Z,993.77
2019-01-17T09:44:48.842Z,993.63
2019-01-17T09:45:48.861Z,993.83
2019-01-17T09:46:48.823Z,993.78
2019-01-17T09:47:48.818Z,993.68
2019-01-17T09:48:48.805Z,993.55
2019-01-17T09:49:48.825Z,993.76
2019-01-17T09:50:48.792Z,993.59
2019-01-17T09:51:48.767Z,993.72
2019-01-17T09:52:48.775Z,993.53
2019-01-17T09:53:48.780Z,993.83
2019-01-17T09:54:48.750Z,993.70
2019-01-17T09:55:48.757Z,993.62
2019-01-17T09:56:48.712Z,993.58
2019-01-17T09:57:48.713Z,993.70
2019-01-17T09:58:48.699Z,993.86
2019-01-17T09:59:48.694Z,993.52
2019-01-17T10:00:48.702Z,993.43
2019-01-17T10:01:48.698Z,993.73
2019-01-17T10:02:48.658Z,993.87
2019-01-17T10:03:48.639Z,993.58
2019-01-17T10:04:48.637Z,993.50
2019-01-17T10:05:48.635Z,993.54
2019-01-17T10:06:48.631Z,993.64
2019-01-17T10:07:48.620Z,993.55
2019-01-17T10:08:48.606Z,993.46
2019-01-17T10:09:48.589Z,993.69
2019-01-17T10:10:48.564Z,993.39
2019-01-17T10:11:48.590Z,993.32
2019-01-17T10:12:48.553Z,993.41
2019-01-17T10:13:48.535Z,993.51
2019-01-17T10:14:48.537Z,993.63
2019-01-17T10:15:48.512Z,993.56
2019-01-17T10:16:48.504Z,993.56
2019-01-17T10:17:48.519Z,993.74
2019-01-17T10:18:48.489Z,993.51
2019-01-17T10:19:48.471Z,993.58
2019-01-17T10:20:48.473Z,993.56
2019-01-17T10:21:48.460Z,993.62
2019-01-17T10:22:48.463Z,993.32
2019-01-17T10:23:48.431Z,993.35
2019-01-17T10:24:48.423Z,993.49
2019-01-17T10:25:48.421Z,993.43
2019-01-17T10:26:48.410Z,993.42
2019-01-17T10:27:48.451Z,993.57
2019-01-17T10:28:48.393Z,993.45
2019-01-17T10:29:48.368Z,993.34
2019-01-17T10:30:48.361Z,993.38
2019-01-17T10:31:48.353Z,993.35
2019-01-17T10:32:48.365Z,993.46
2019-01-17T10:33:48.357Z,993.38
2019-01-17T10:34:48.321Z,993.40
2019-01-17T10:35:48.310Z,993.46
2019-01-17T10:36:48.303Z,993.46
2019-01-17T10:37:48.321Z,993.49
2019-01-17T10:38:48.289Z,993.44
2019-01-17T10:39:48.269Z,993.55
2019-01-17T10:40:48.264Z,993.53
2019-01-17T10:41:48.257Z,993.35
2019-01-17T10:42:48.235Z,993.37
2019-01-17T10:43:48.277Z,993.50
2019-01-17T10:44:48.222Z,993.43
2019-01-17T10:45:48.208Z,993.35
2019-01-17T10:46:48.200Z,993.44
2019-01-17T10:47:48.179Z,993.59
2019-01-17T10:48:48.179Z,993.44
2019-01-17T10:49:48.191Z,993.36
2019-01-17T10:50:48.159Z,993.40
2019-01-17T10:51:49.440Z,993.42
2019-01-17T10:52:48.135Z,993.29
2019-01-17T10:53:48.123Z,993.36
2019-01-17T10:54:48.137Z,993.37
2019-01-17T10:55:48.125Z,993.35
2019-01-17T10:56:48.098Z,993.28
2019-01-17T10:57:48.121Z,993.49
2019-01-17T10:58:48.137Z,993.35
2019-01-17T10:59:48.059Z,993.36
2019-01-17T11:00:48.065Z,993.47
2019-01-17T11:01:48.059Z,993.42
2019-01-17T11:02:48.029Z,993.22
2019-01-17T11:03:48.022Z,993.26
2019-01-17T11:04:48.012Z,993.25
2019-01-17T11:05:48.030Z,993.23
2019-01-17T11:06:47.986Z,993.34
2019-01-17T11:07:47.972Z,993.32
2019-01-17T11:08:47.966Z,993.22
2019-01-17T11:09:47.957Z,993.27
2019-01-17T11:10:47.943Z,993.16
2019-01-17T11:11:47.974Z,993.05
2019-01-17T11:12:47.925Z,993.07
2019-01-17T11:13:47.918Z,993.11
2019-01-17T11:14:47.901Z,993.14
2019-01-17T11:15:47.891Z,993.27
2019-01-17T11:16:47.934Z,993.11
2019-01-17T11:17:47.899Z,993.11
2019-01-17T11:18:47.874Z,993.05
2019-01-17T11:19:47.851Z,993.03
2019-01-17T11:20:47.854Z,993.04
2019-01-17T11:21:47.843Z,993.05
2019-01-17T11:22:48.287Z,993.00
2019-01-17T11:23:47.818Z,993.11
2019-01-17T11:24:47.810Z,993.14
2019-01-17T11:25:47.799Z,992.98
2019-01-17T11:26:47.795Z,992.98
2019-01-17T11:27:47.770Z,992.91
2019-01-17T11:28:47.774Z,993.00
2019-01-17T11:29:47.748Z,992.94
2019-01-17T11:30:47.774Z,993.00
2019-01-17T11:31:47.756Z,993.19
2019-01-17T11:32:47.718Z,992.99
2019-01-17T11:33:47.726Z,992.97
2019-01-17T11:34:47.704Z,992.95
2019-01-17T11:35:47.687Z,992.98
2019-01-17T11:36:47.684Z,992.94
2019-01-17T11:37:47.666Z,992.95
2019-01-17T11:38:47.691Z,992.92
2019-01-17T11:39:47.645Z,992.83
2019-01-17T11:40:47.636Z,992.85
2019-01-17T11:41:47.644Z,992.81
2019-01-17T11:42:47.620Z,992.84
2019-01-17T11:43:47.609Z,992.82
2019-01-17T11:44:47.627Z,993.01
2019-01-17T11:45:47.581Z,993.03
2019-01-17T11:46:47.580Z,992.95
2019-01-17T11:47:47.564Z,992.93
2019-01-17T11:48:47.555Z,992.86
2019-01-17T11:49:47.538Z,992.83
2019-01-17T11:50:47.570Z,992.87
2019-01-17T11:51:47.523Z,992.97
2019-01-17T11:52:47.508Z,992.63
2019-01-17T11:53:47.690Z,992.78
2019-01-17T11:54:47.500Z,992.72
2019-01-17T11:55:47.501Z,992.82
2019-01-17T11:56:47.473Z,992.76
2019-01-17T11:57:47.475Z,992.78
2019-01-17T11:58:47.452Z,992.75
2019-01-17T11:59:47.432Z,992.79
2019-01-17T12:00:47.487Z,992.79
2019-01-17T12:01:47.437Z,992.79
2019-01-17T12:02:47.407Z,992.89
2019-01-17T12:03:47.402Z,992.87
2019-01-17T12:04:47.389Z,992.71
2019-01-17T12:05:48.342Z,992.79
2019-01-17T12:06:56.263Z,992.74
2019-01-17T12:07:48.338Z,992.81
2019-01-17T12:08:47.376Z,992.68
2019-01-17T12:09:47.342Z,992.71
2019-01-17T12:10:47.325Z,992.70
2019-01-17T12:11:47.321Z,992.80
2019-01-17T12:12:47.319Z,992.71
2019-01-17T12:13:47.339Z,992.70
2019-01-17T12:14:47.302Z,992.92
2019-01-17T12:15:47.342Z,992.74
2019-01-17T12:16:47.256Z,992.98
2019-01-17T12:17:47.278Z,992.63
2019-01-17T12:18:47.239Z,993.04
2019-01-17T12:19:47.247Z,992.68
2019-01-17T12:20:47.223Z,992.90
2019-01-17T12:21:47.210Z,992.79
2019-01-17T12:22:47.255Z,992.63
2019-01-17T12:23:47.217Z,992.94
2019-01-17T12:24:47.183Z,992.82
2019-01-17T12:25:47.167Z,992.70
2019-01-17T12:26:47.607Z,992.88
2019-01-17T12:27:47.162Z,992.67
2019-01-17T12:28:47.154Z,992.67